Warm Springs, Arkansas
Current Conditions -  °F | °C
As of 11:55 AM on Friday 24 Oct 2014 (Local Time) from KARG Reporting Station
Scattered Clouds Scattered Clouds  
Wind Chill: 61°   Ceiling: Unl
Heat Index: 61°   Visibility: 10mi
Dew Point: 48°   Wind: 0mph
Humidity: 63%   Direction: NA
Pressure: 30.14"   Gusts: NA
Location:  36.48°N, 91.05°W
Report Text: KARG 241655Z AUTO 00000KT 10SM FEW030 SCT037 16/09 A3014 RMK AO1
Loading
Personal Weather Stations






























Interactive Weather Map
Tropical Storm Tracking
New forecast layout! Learn more

10-Day Weather Forecast

Advertisements
Track Severe Weather on mobile